sensor_id;sensor_type;location;lat;lon;timestamp;temperature;humidity
13464;DHT22;6804;48.774;9.174;2022-11-15T00:01:21;10.60;99.90
13464;DHT22;6804;48.774;9.174;2022-11-15T00:03:51;10.60;99.90
13464;DHT22;6804;48.774;9.174;2022-11-15T00:06:18;10.70;99.90
13464;DHT22;6804;48.774;9.174;2022-11-15T00:08:46;10.70;99.90
13464;DHT22;6804;48.774;9.174;2022-11-15T00:11:15;10.70;99.90
13464;DHT22;6804;48.774;9.174;2022-11-15T00:13:44;10.70;99.90
13464;DHT22;6804;48.774;9.174;2022-11-15T00:16:11;10.80;99.90
13464;DHT22;6804;48.774;9.174;2022-11-15T00:18:41;10.80;99.90
13464;DHT22;6804;48.774;9.174;2022-11-15T00:21:11;10.80;99.90
13464;DHT22;6804;48.774;9.174;2022-11-15T00:23:38;10.80;99.90
13464;DHT22;6804;48.774;9.174;2022-11-15T00:26:10;10.90;99.90
13464;DHT22;6804;48.774;9.174;2022-11-15T00:28:42;10.90;99.90
13464;DHT22;6804;48.774;9.174;2022-11-15T00:31:12;10.90;99.90
13464;DHT22;6804;48.774;9.174;2022-11-15T00:33:43;10.90;99.90
13464;DHT22;6804;48.774;9.174;2022-11-15T00:36:10;10.90;99.90
13464;DHT22;6804;48.774;9.174;2022-11-15T00:38:48;10.90;99.90
13464;DHT22;6804;48.774;9.174;2022-11-15T00:41:20;10.80;99.90
13464;DHT22;6804;48.774;9.174;2022-11-15T00:43:49;10.70;99.90
13464;DHT22;6804;48.774;9.174;2022-11-15T00:46:16;10.60;99.90
13464;DHT22;6804;48.774;9.174;2022-11-15T00:48:44;10.60;99.90
13464;DHT22;6804;48.774;9.174;2022-11-15T00:51:11;10.60;99.90
13464;DHT22;6804;48.774;9.174;2022-11-15T00:53:41;10.60;99.90
13464;DHT22;6804;48.774;9.174;2022-11-15T00:56:10;10.70;99.90
13464;DHT22;6804;48.774;9.174;2022-11-15T00:58:42;10.70;99.90
13464;DHT22;6804;48.774;9.174;2022-11-15T01:01:13;10.80;99.90
13464;DHT22;6804;48.774;9.174;2022-11-15T01:03:41;10.70;99.90
13464;DHT22;6804;48.774;9.174;2022-11-15T01:06:11;10.70;99.90
13464;DHT22;6804;48.774;9.174;2022-11-15T01:08:39;10.70;99.90
13464;DHT22;6804;48.774;9.174;2022-11-15T01:11:09;10.80;99.90
13464;DHT22;6804;48.774;9.174;2022-11-15T01:13:43;10.80;99.90
13464;DHT22;6804;48.774;9.174;2022-11-15T01:16:13;10.80;99.90
13464;DHT22;6804;48.774;9.174;2022-11-15T01:18:42;10.80;99.90
13464;DHT22;6804;48.774;9.174;2022-11-15T01:21:13;10.90;99.90
13464;DHT22;6804;48.774;9.174;2022-11-15T01:23:41;10.90;99.90
13464;DHT22;6804;48.774;9.174;2022-11-15T01:26:11;10.80;99.90
13464;DHT22;6804;48.774;9.174;2022-11-15T01:28:40;10.80;99.90
13464;DHT22;6804;48.774;9.174;2022-11-15T01:31:13;10.80;99.90
13464;DHT22;6804;48.774;9.174;2022-11-15T01:33:43;10.80;99.90
13464;DHT22;6804;48.774;9.174;2022-11-15T01:36:13;10.70;99.90
13464;DHT22;6804;48.774;9.174;2022-11-15T01:38:40;10.70;99.90
13464;DHT22;6804;48.774;9.174;2022-11-15T01:41:15;10.60;99.90
13464;DHT22;6804;48.774;9.174;2022-11-15T01:43:43;10.60;99.90
13464;DHT22;6804;48.774;9.174;2022-11-15T01:46:25;10.60;99.90
13464;DHT22;6804;48.774;9.174;2022-11-15T01:48:55;10.60;99.90
13464;DHT22;6804;48.774;9.174;2022-11-15T01:51:26;10.60;99.90
13464;DHT22;6804;48.774;9.174;2022-11-15T01:53:55;10.50;99.90
13464;DHT22;6804;48.774;9.174;2022-11-15T01:56:27;10.50;99.90
13464;DHT22;6804;48.774;9.174;2022-11-15T01:58:57;10.50;99.90
13464;DHT22;6804;48.774;9.174;2022-11-15T02:01:31;10.40;99.90
13464;DHT22;6804;48.774;9.174;2022-11-15T02:04:04;10.40;99.90
13464;DHT22;6804;48.774;9.174;2022-11-15T02:06:34;10.30;99.90
13464;DHT22;6804;48.774;9.174;2022-11-15T02:09:05;10.20;99.90
13464;DHT22;6804;48.774;9.174;2022-11-15T02:11:32;10.10;99.90
13464;DHT22;6804;48.774;9.174;2022-11-15T02:14:01;10.10;99.90
13464;DHT22;6804;48.774;9.174;2022-11-15T02:16:43;10.20;99.90
13464;DHT22;6804;48.774;9.174;2022-11-15T02:19:35;10.10;99.90
13464;DHT22;6804;48.774;9.174;2022-11-15T02:22:14;10.10;99.90
13464;DHT22;6804;48.774;9.174;2022-11-15T02:25:03;10.10;99.90
13464;DHT22;6804;48.774;9.174;2022-11-15T02:27:53;10.10;99.90
13464;DHT22;6804;48.774;9.174;2022-11-15T02:30:30;10.10;99.90
13464;DHT22;6804;48.774;9.174;2022-11-15T02:33:06;10.10;99.90
13464;DHT22;6804;48.774;9.174;2022-11-15T02:35:42;10.00;99.90
13464;DHT22;6804;48.774;9.174;2022-11-15T02:38:20;9.90;99.90
13464;DHT22;6804;48.774;9.174;2022-11-15T02:40:56;10.00;99.90
13464;DHT22;6804;48.774;9.174;2022-11-15T02:43:29;10.00;99.90
13464;DHT22;6804;48.774;9.174;2022-11-15T02:46:19;9.90;99.90
13464;DHT22;6804;48.774;9.174;2022-11-15T02:49:10;9.90;99.90
13464;DHT22;6804;48.774;9.174;2022-11-15T02:51:38;9.80;99.90
13464;DHT22;6804;48.774;9.174;2022-11-15T02:54:12;9.70;99.90
13464;DHT22;6804;48.774;9.174;2022-11-15T02:56:46;9.60;99.90
13464;DHT22;6804;48.774;9.174;2022-11-15T02:59:28;9.60;99.90
13464;DHT22;6804;48.774;9.174;2022-11-15T03:02:13;9.70;99.90
13464;DHT22;6804;48.774;9.174;2022-11-15T03:04:45;9.70;99.90
13464;DHT22;6804;48.774;9.174;2022-11-15T03:07:22;9.70;99.90
13464;DHT22;6804;48.774;9.174;2022-11-15T03:09:53;9.70;99.90
13464;DHT22;6804;48.774;9.174;2022-11-15T03:12:26;9.60;99.90
13464;DHT22;6804;48.774;9.174;2022-11-15T03:15:02;9.60;99.90
13464;DHT22;6804;48.774;9.174;2022-11-15T03:17:37;9.70;99.90
13464;DHT22;6804;48.774;9.174;2022-11-15T03:20:06;9.60;99.90
13464;DHT22;6804;48.774;9.174;2022-11-15T03:22:37;9.60;99.90
13464;DHT22;6804;48.774;9.174;2022-11-15T03:25:16;9.50;99.90
13464;DHT22;6804;48.774;9.174;2022-11-15T03:27:48;9.60;99.90
13464;DHT22;6804;48.774;9.174;2022-11-15T03:30:17;9.60;99.90
13464;DHT22;6804;48.774;9.174;2022-11-15T03:32:47;9.60;99.90
13464;DHT22;6804;48.774;9.174;2022-11-15T03:35:18;9.60;99.90
13464;DHT22;6804;48.774;9.174;2022-11-15T03:37:50;9.70;99.90
13464;DHT22;6804;48.774;9.174;2022-11-15T03:40:23;9.60;99.90
13464;DHT22;6804;48.774;9.174;2022-11-15T03:42:59;9.50;99.90
13464;DHT22;6804;48.774;9.174;2022-11-15T03:45:35;9.40;99.90
13464;DHT22;6804;48.774;9.174;2022-11-15T03:48:10;9.30;99.90
13464;DHT22;6804;48.774;9.174;2022-11-15T03:50:41;9.30;99.90
13464;DHT22;6804;48.774;9.174;2022-11-15T03:53:10;9.40;99.90
13464;DHT22;6804;48.774;9.174;2022-11-15T03:55:39;9.40;99.90
13464;DHT22;6804;48.774;9.174;2022-11-15T03:58:20;9.50;99.90
13464;DHT22;6804;48.774;9.174;2022-11-15T04:00:47;9.50;99.90
13464;DHT22;6804;48.774;9.174;2022-11-15T04:03:16;9.50;99.90
13464;DHT22;6804;48.774;9.174;2022-11-15T04:05:46;9.50;99.90
13464;DHT22;6804;48.774;9.174;2022-11-15T04:08:14;9.50;99.90
13464;DHT22;6804;48.774;9.174;2022-11-15T04:10:48;9.60;99.90
13464;DHT22;6804;48.774;9.174;2022-11-15T04:13:16;9.60;99.90
13464;DHT22;6804;48.774;9.174;2022-11-15T04:15:43;9.60;99.90
13464;DHT22;6804;48.774;9.174;2022-11-15T04:18:10;9.60;99.90
13464;DHT22;6804;48.774;9.174;2022-11-15T04:20:39;9.50;99.90
13464;DHT22;6804;48.774;9.174;2022-11-15T04:23:23;9.50;99.90
13464;DHT22;6804;48.774;9.174;2022-11-15T04:26:09;9.50;99.90
13464;DHT22;6804;48.774;9.174;2022-11-15T04:28:40;9.50;99.90
13464;DHT22;6804;48.774;9.174;2022-11-15T04:31:21;9.60;99.90
13464;DHT22;6804;48.774;9.174;2022-11-15T04:33:48;9.60;99.90
13464;DHT22;6804;48.774;9.174;2022-11-15T04:36:17;9.70;99.90
13464;DHT22;6804;48.774;9.174;2022-11-15T04:39:01;9.70;99.90
13464;DHT22;6804;48.774;9.174;2022-11-15T04:41:28;9.70;99.90
13464;DHT22;6804;48.774;9.174;2022-11-15T04:43:58;9.70;99.90
13464;DHT22;6804;48.774;9.174;2022-11-15T04:46:26;9.70;99.90
13464;DHT22;6804;48.774;9.174;2022-11-15T04:49:00;9.70;99.90
13464;DHT22;6804;48.774;9.174;2022-11-15T04:51:28;9.60;99.90
13464;DHT22;6804;48.774;9.174;2022-11-15T04:53:58;9.60;99.90
13464;DHT22;6804;48.774;9.174;2022-11-15T04:56:28;9.50;99.90
13464;DHT22;6804;48.774;9.174;2022-11-15T04:58:57;9.50;99.90
13464;DHT22;6804;48.774;9.174;2022-11-15T05:01:28;9.50;99.90
13464;DHT22;6804;48.774;9.174;2022-11-15T05:03:55;9.60;99.90
13464;DHT22;6804;48.774;9.174;2022-11-15T05:06:41;9.60;99.90
13464;DHT22;6804;48.774;9.174;2022-11-15T05:09:08;9.60;99.90
13464;DHT22;6804;48.774;9.174;2022-11-15T05:11:36;9.60;99.90
13464;DHT22;6804;48.774;9.174;2022-11-15T05:14:09;9.60;99.90
13464;DHT22;6804;48.774;9.174;2022-11-15T05:16:39;9.70;99.90
13464;DHT22;6804;48.774;9.174;2022-11-15T05:19:06;9.60;99.90
13464;DHT22;6804;48.774;9.174;2022-11-15T05:21:34;9.60;99.90
13464;DHT22;6804;48.774;9.174;2022-11-15T05:24:04;9.60;99.90
13464;DHT22;6804;48.774;9.174;2022-11-15T05:26:33;9.70;99.90
13464;DHT22;6804;48.774;9.174;2022-11-15T05:29:03;9.70;99.90
13464;DHT22;6804;48.774;9.174;2022-11-15T05:31:31;9.70;99.90
13464;DHT22;6804;48.774;9.174;2022-11-15T05:34:00;9.70;99.90
13464;DHT22;6804;48.774;9.174;2022-11-15T05:36:31;9.70;99.90
13464;DHT22;6804;48.774;9.174;2022-11-15T05:39:02;9.70;99.90
13464;DHT22;6804;48.774;9.174;2022-11-15T05:41:33;9.60;99.90
13464;DHT22;6804;48.774;9.174;2022-11-15T05:44:01;9.60;99.90
13464;DHT22;6804;48.774;9.174;2022-11-15T05:46:29;9.60;99.90
13464;DHT22;6804;48.774;9.174;2022-11-15T05:48:57;9.60;99.90
13464;DHT22;6804;48.774;9.174;2022-11-15T05:51:26;9.60;99.90
13464;DHT22;6804;48.774;9.174;2022-11-15T05:53:55;9.60;99.90
13464;DHT22;6804;48.774;9.174;2022-11-15T05:56:25;9.60;99.90
13464;DHT22;6804;48.774;9.174;2022-11-15T05:59:07;9.60;99.90
13464;DHT22;6804;48.774;9.174;2022-11-15T06:01:35;9.60;99.90
13464;DHT22;6804;48.774;9.174;2022-11-15T06:04:05;9.60;99.90
13464;DHT22;6804;48.774;9.174;2022-11-15T06:06:32;9.60;99.90
13464;DHT22;6804;48.774;9.174;2022-11-15T06:09:03;9.50;99.90
13464;DHT22;6804;48.774;9.174;2022-11-15T06:11:34;9.50;99.90
13464;DHT22;6804;48.774;9.174;2022-11-15T06:14:01;9.50;99.90
13464;DHT22;6804;48.774;9.174;2022-11-15T06:16:29;9.40;99.90
13464;DHT22;6804;48.774;9.174;2022-11-15T06:18:59;9.40;99.90
13464;DHT22;6804;48.774;9.174;2022-11-15T06:21:30;9.40;99.90
13464;DHT22;6804;48.774;9.174;2022-11-15T06:23:59;9.40;99.90
13464;DHT22;6804;48.774;9.174;2022-11-15T06:26:26;9.40;99.90
13464;DHT22;6804;48.774;9.174;2022-11-15T06:28:55;9.40;99.90
13464;DHT22;6804;48.774;9.174;2022-11-15T06:31:22;9.50;99.90
13464;DHT22;6804;48.774;9.174;2022-11-15T06:33:49;9.50;99.90
13464;DHT22;6804;48.774;9.174;2022-11-15T06:36:17;9.60;99.90
13464;DHT22;6804;48.774;9.174;2022-11-15T06:38:52;9.60;99.90
13464;DHT22;6804;48.774;9.174;2022-11-15T06:41:19;9.70;99.90
13464;DHT22;6804;48.774;9.174;2022-11-15T06:43:46;9.70;99.90
13464;DHT22;6804;48.774;9.174;2022-11-15T06:46:15;9.80;99.90
13464;DHT22;6804;48.774;9.174;2022-11-15T06:48:43;9.80;99.90
13464;DHT22;6804;48.774;9.174;2022-11-15T06:51:12;9.80;99.90
13464;DHT22;6804;48.774;9.174;2022-11-15T06:53:40;9.90;99.90
13464;DHT22;6804;48.774;9.174;2022-11-15T06:56:07;9.90;99.90
13464;DHT22;6804;48.774;9.174;2022-11-15T06:58:36;9.90;99.90
13464;DHT22;6804;48.774;9.174;2022-11-15T07:01:05;9.90;99.90
13464;DHT22;6804;48.774;9.174;2022-11-15T07:03:36;9.90;99.90
13464;DHT22;6804;48.774;9.174;2022-11-15T07:06:03;10.00;99.90
13464;DHT22;6804;48.774;9.174;2022-11-15T07:08:31;10.00;99.90
13464;DHT22;6804;48.774;9.174;2022-11-15T07:10:58;10.10;99.90
13464;DHT22;6804;48.774;9.174;2022-11-15T07:13:28;10.00;99.90
13464;DHT22;6804;48.774;9.174;2022-11-15T07:15:55;10.10;99.90
13464;DHT22;6804;48.774;9.174;2022-11-15T07:18:23;10.10;99.90
13464;DHT22;6804;48.774;9.174;2022-11-15T07:20:54;10.10;99.90
13464;DHT22;6804;48.774;9.174;2022-11-15T07:23:23;10.10;99.90
13464;DHT22;6804;48.774;9.174;2022-11-15T07:25:53;10.20;99.90
13464;DHT22;6804;48.774;9.174;2022-11-15T07:28:23;10.20;99.90
13464;DHT22;6804;48.774;9.174;2022-11-15T07:30:51;10.30;99.90
13464;DHT22;6804;48.774;9.174;2022-11-15T07:33:22;10.30;99.90
13464;DHT22;6804;48.774;9.174;2022-11-15T07:35:51;10.40;99.90
13464;DHT22;6804;48.774;9.174;2022-11-15T07:38:20;10.40;99.90
13464;DHT22;6804;48.774;9.174;2022-11-15T07:40:56;10.50;99.90
13464;DHT22;6804;48.774;9.174;2022-11-15T07:43:24;10.50;99.90
13464;DHT22;6804;48.774;9.174;2022-11-15T07:45:53;10.50;99.90
13464;DHT22;6804;48.774;9.174;2022-11-15T07:48:22;10.60;99.90
13464;DHT22;6804;48.774;9.174;2022-11-15T07:50:53;10.60;99.90
13464;DHT22;6804;48.774;9.174;2022-11-15T07:53:24;10.70;99.90
13464;DHT22;6804;48.774;9.174;2022-11-15T07:55:53;10.80;99.90
13464;DHT22;6804;48.774;9.174;2022-11-15T07:58:24;10.90;99.90
13464;DHT22;6804;48.774;9.174;2022-11-15T08:00:51;10.90;99.90
13464;DHT22;6804;48.774;9.174;2022-11-15T08:03:18;11.00;99.90
13464;DHT22;6804;48.774;9.174;2022-11-15T08:05:51;11.10;99.90
13464;DHT22;6804;48.774;9.174;2022-11-15T08:08:22;11.10;99.90
13464;DHT22;6804;48.774;9.174;2022-11-15T08:10:49;11.20;99.90
13464;DHT22;6804;48.774;9.174;2022-11-15T08:13:17;11.20;99.90
13464;DHT22;6804;48.774;9.174;2022-11-15T08:15:44;11.30;99.90
13464;DHT22;6804;48.774;9.174;2022-11-15T08:18:13;11.40;99.90
13464;DHT22;6804;48.774;9.174;2022-11-15T08:20:41;11.40;99.90
13464;DHT22;6804;48.774;9.174;2022-11-15T08:23:14;11.50;99.90
13464;DHT22;6804;48.774;9.174;2022-11-15T08:25:42;11.50;99.90
13464;DHT22;6804;48.774;9.174;2022-11-15T08:28:10;11.50;99.90
13464;DHT22;6804;48.774;9.174;2022-11-15T08:30:41;11.60;99.90
13464;DHT22;6804;48.774;9.174;2022-11-15T08:33:14;11.60;99.90
13464;DHT22;6804;48.774;9.174;2022-11-15T08:35:45;11.70;99.90
13464;DHT22;6804;48.774;9.174;2022-11-15T08:38:17;11.80;99.90
13464;DHT22;6804;48.774;9.174;2022-11-15T08:40:44;11.80;99.90
13464;DHT22;6804;48.774;9.174;2022-11-15T08:43:12;12.00;99.90
13464;DHT22;6804;48.774;9.174;2022-11-15T08:45:42;12.00;99.90
13464;DHT22;6804;48.774;9.174;2022-11-15T08:48:10;12.20;99.90
13464;DHT22;6804;48.774;9.174;2022-11-15T08:50:41;12.40;99.90
13464;DHT22;6804;48.774;9.174;2022-11-15T08:53:16;12.50;99.90
13464;DHT22;6804;48.774;9.174;2022-11-15T08:55:44;12.70;99.90
13464;DHT22;6804;48.774;9.174;2022-11-15T08:58:11;12.80;99.90
13464;DHT22;6804;48.774;9.174;2022-11-15T09:00:39;12.80;99.90
13464;DHT22;6804;48.774;9.174;2022-11-15T09:03:09;12.80;99.90
13464;DHT22;6804;48.774;9.174;2022-11-15T09:05:37;12.80;99.90
13464;DHT22;6804;48.774;9.174;2022-11-15T09:08:05;12.80;99.90
13464;DHT22;6804;48.774;9.174;2022-11-15T09:10:36;12.90;99.90
13464;DHT22;6804;48.774;9.174;2022-11-15T09:13:04;13.10;99.90
13464;DHT22;6804;48.774;9.174;2022-11-15T09:15:32;13.20;99.90
13464;DHT22;6804;48.774;9.174;2022-11-15T09:17:59;13.20;99.90
13464;DHT22;6804;48.774;9.174;2022-11-15T09:20:27;13.10;99.90
13464;DHT22;6804;48.774;9.174;2022-11-15T09:22:54;13.10;99.90
13464;DHT22;6804;48.774;9.174;2022-11-15T09:25:24;13.20;99.90
13464;DHT22;6804;48.774;9.174;2022-11-15T09:27:56;13.20;99.90
13464;DHT22;6804;48.774;9.174;2022-11-15T09:30:24;13.30;99.90
13464;DHT22;6804;48.774;9.174;2022-11-15T09:32:51;13.30;99.90
13464;DHT22;6804;48.774;9.174;2022-11-15T09:35:26;13.50;99.90
13464;DHT22;6804;48.774;9.174;2022-11-15T09:37:57;13.60;99.90
13464;DHT22;6804;48.774;9.174;2022-11-15T09:40:25;13.80;99.90
13464;DHT22;6804;48.774;9.174;2022-11-15T09:43:05;13.90;99.90
13464;DHT22;6804;48.774;9.174;2022-11-15T09:45:45;13.90;99.90
13464;DHT22;6804;48.774;9.174;2022-11-15T09:48:36;14.00;99.90
13464;DHT22;6804;48.774;9.174;2022-11-15T09:51:18;14.10;99.90
13464;DHT22;6804;48.774;9.174;2022-11-15T09:53:57;14.00;99.90
13464;DHT22;6804;48.774;9.174;2022-11-15T09:56:30;14.00;99.90
13464;DHT22;6804;48.774;9.174;2022-11-15T09:59:15;14.00;99.90
13464;DHT22;6804;48.774;9.174;2022-11-15T10:01:56;14.20;99.90
13464;DHT22;6804;48.774;9.174;2022-11-15T10:04:28;14.30;99.90
13464;DHT22;6804;48.774;9.174;2022-11-15T10:07:01;14.40;99.90
13464;DHT22;6804;48.774;9.174;2022-11-15T10:09:36;14.50;99.90
13464;DHT22;6804;48.774;9.174;2022-11-15T10:12:07;14.40;99.90
13464;DHT22;6804;48.774;9.174;2022-11-15T10:14:39;14.50;99.90
13464;DHT22;6804;48.774;9.174;2022-11-15T10:17:21;14.50;99.90
13464;DHT22;6804;48.774;9.174;2022-11-15T10:19:58;14.60;99.90
13464;DHT22;6804;48.774;9.174;2022-11-15T10:22:31;14.60;99.90
13464;DHT22;6804;48.774;9.174;2022-11-15T10:25:14;14.60;99.90
13464;DHT22;6804;48.774;9.174;2022-11-15T10:27:46;14.70;99.90
13464;DHT22;6804;48.774;9.174;2022-11-15T10:30:19;14.70;99.90
13464;DHT22;6804;48.774;9.174;2022-11-15T10:32:50;14.80;99.90
13464;DHT22;6804;48.774;9.174;2022-11-15T10:35:22;14.70;99.90
13464;DHT22;6804;48.774;9.174;2022-11-15T10:37:50;14.80;99.90
13464;DHT22;6804;48.774;9.174;2022-11-15T10:40:23;14.70;99.90
13464;DHT22;6804;48.774;9.174;2022-11-15T10:43:06;14.60;99.90
13464;DHT22;6804;48.774;9.174;2022-11-15T10:45:38;14.60;99.90
13464;DHT22;6804;48.774;9.174;2022-11-15T10:48:23;14.60;99.90
13464;DHT22;6804;48.774;9.174;2022-11-15T10:51:01;14.60;99.90
13464;DHT22;6804;48.774;9.174;2022-11-15T10:53:43;14.70;99.90
13464;DHT22;6804;48.774;9.174;2022-11-15T10:56:14;14.70;99.90
13464;DHT22;6804;48.774;9.174;2022-11-15T10:58:49;14.50;99.90
13464;DHT22;6804;48.774;9.174;2022-11-15T11:01:22;14.40;99.90
13464;DHT22;6804;48.774;9.174;2022-11-15T11:04:01;14.30;99.90
13464;DHT22;6804;48.774;9.174;2022-11-15T11:06:29;14.30;99.90
13464;DHT22;6804;48.774;9.174;2022-11-15T11:08:59;14.30;99.90
13464;DHT22;6804;48.774;9.174;2022-11-15T11:11:45;14.20;99.90
13464;DHT22;6804;48.774;9.174;2022-11-15T11:14:17;14.30;99.90
13464;DHT22;6804;48.774;9.174;2022-11-15T11:16:51;14.30;99.90
13464;DHT22;6804;48.774;9.174;2022-11-15T11:19:49;14.40;99.90
13464;DHT22;6804;48.774;9.174;2022-11-15T11:22:25;14.40;99.90
13464;DHT22;6804;48.774;9.174;2022-11-15T11:25:03;14.40;99.90
13464;DHT22;6804;48.774;9.174;2022-11-15T11:27:42;14.50;99.90
13464;DHT22;6804;48.774;9.174;2022-11-15T11:30:14;14.50;99.90
13464;DHT22;6804;48.774;9.174;2022-11-15T11:33:04;14.60;99.90
13464;DHT22;6804;48.774;9.174;2022-11-15T11:35:39;14.70;99.90
13464;DHT22;6804;48.774;9.174;2022-11-15T11:38:31;14.60;99.90
13464;DHT22;6804;48.774;9.174;2022-11-15T11:41:04;14.70;99.90
13464;DHT22;6804;48.774;9.174;2022-11-15T11:43:39;14.70;99.90
13464;DHT22;6804;48.774;9.174;2022-11-15T11:46:37;14.70;99.90
13464;DHT22;6804;48.774;9.174;2022-11-15T11:49:12;14.70;99.90
13464;DHT22;6804;48.774;9.174;2022-11-15T11:51:44;14.70;99.90
13464;DHT22;6804;48.774;9.174;2022-11-15T11:54:20;14.70;99.90
13464;DHT22;6804;48.774;9.174;2022-11-15T11:56:50;14.80;99.90
13464;DHT22;6804;48.774;9.174;2022-11-15T11:59:25;14.90;99.90
13464;DHT22;6804;48.774;9.174;2022-11-15T12:01:57;14.80;99.90
13464;DHT22;6804;48.774;9.174;2022-11-15T12:04:36;14.90;99.90
13464;DHT22;6804;48.774;9.174;2022-11-15T12:07:11;14.90;99.90
13464;DHT22;6804;48.774;9.174;2022-11-15T12:09:44;14.80;99.90
13464;DHT22;6804;48.774;9.174;2022-11-15T12:12:19;14.90;99.90
13464;DHT22;6804;48.774;9.174;2022-11-15T12:14:54;15.00;99.90
13464;DHT22;6804;48.774;9.174;2022-11-15T12:17:24;15.00;99.90
13464;DHT22;6804;48.774;9.174;2022-11-15T12:22:36;15.20;99.90
13464;DHT22;6804;48.774;9.174;2022-11-15T12:25:15;15.20;99.90
13464;DHT22;6804;48.774;9.174;2022-11-15T12:27:50;15.30;99.90
13464;DHT22;6804;48.774;9.174;2022-11-15T12:30:21;15.30;99.90
13464;DHT22;6804;48.774;9.174;2022-11-15T12:32:51;15.30;99.90
13464;DHT22;6804;48.774;9.174;2022-11-15T12:35:29;15.30;99.90
13464;DHT22;6804;48.774;9.174;2022-11-15T12:37:57;15.30;99.90
13464;DHT22;6804;48.774;9.174;2022-11-15T12:40:36;15.30;99.90
13464;DHT22;6804;48.774;9.174;2022-11-15T12:46:03;15.30;99.90
13464;DHT22;6804;48.774;9.174;2022-11-15T12:48:53;15.30;99.90
13464;DHT22;6804;48.774;9.174;2022-11-15T12:57:35;15.20;99.90
13464;DHT22;6804;48.774;9.174;2022-11-15T13:03:28;15.20;99.90
13464;DHT22;6804;48.774;9.174;2022-11-15T13:08:56;15.20;99.90
13464;DHT22;6804;48.774;9.174;2022-11-15T13:11:42;15.20;99.90
13464;DHT22;6804;48.774;9.174;2022-11-15T13:14:37;15.20;99.90
13464;DHT22;6804;48.774;9.174;2022-11-15T13:17:23;15.20;99.90
13464;DHT22;6804;48.774;9.174;2022-11-15T13:19:56;15.20;99.90
13464;DHT22;6804;48.774;9.174;2022-11-15T13:22:27;15.20;99.90
13464;DHT22;6804;48.774;9.174;2022-11-15T13:25:21;15.20;99.90
13464;DHT22;6804;48.774;9.174;2022-11-15T13:27:54;15.10;99.90
13464;DHT22;6804;48.774;9.174;2022-11-15T13:30:25;15.10;99.90
13464;DHT22;6804;48.774;9.174;2022-11-15T13:32:56;15.10;99.90
13464;DHT22;6804;48.774;9.174;2022-11-15T13:35:33;15.10;99.90
13464;DHT22;6804;48.774;9.174;2022-11-15T13:38:04;15.00;99.90
13464;DHT22;6804;48.774;9.174;2022-11-15T13:40:36;15.00;99.90
13464;DHT22;6804;48.774;9.174;2022-11-15T13:43:22;15.00;99.90
13464;DHT22;6804;48.774;9.174;2022-11-15T13:46:12;15.00;99.90
13464;DHT22;6804;48.774;9.174;2022-11-15T13:48:40;15.00;99.90
13464;DHT22;6804;48.774;9.174;2022-11-15T13:51:15;15.00;99.90
13464;DHT22;6804;48.774;9.174;2022-11-15T13:53:47;15.00;99.90
13464;DHT22;6804;48.774;9.174;2022-11-15T13:56:17;15.00;99.90
13464;DHT22;6804;48.774;9.174;2022-11-15T13:58:51;15.00;99.90
13464;DHT22;6804;48.774;9.174;2022-11-15T14:01:21;15.00;99.90
13464;DHT22;6804;48.774;9.174;2022-11-15T14:04:00;14.90;99.90
13464;DHT22;6804;48.774;9.174;2022-11-15T14:06:31;14.80;99.90
13464;DHT22;6804;48.774;9.174;2022-11-15T14:09:29;14.70;99.90
13464;DHT22;6804;48.774;9.174;2022-11-15T14:11:58;14.70;99.90
13464;DHT22;6804;48.774;9.174;2022-11-15T14:14:27;14.60;99.90
13464;DHT22;6804;48.774;9.174;2022-11-15T14:16:56;14.60;99.90
13464;DHT22;6804;48.774;9.174;2022-11-15T14:19:38;14.60;99.90
13464;DHT22;6804;48.774;9.174;2022-11-15T14:22:11;14.60;99.90
13464;DHT22;6804;48.774;9.174;2022-11-15T14:24:45;14.60;99.90
13464;DHT22;6804;48.774;9.174;2022-11-15T14:27:32;14.60;99.90
13464;DHT22;6804;48.774;9.174;2022-11-15T14:30:00;14.60;99.90
13464;DHT22;6804;48.774;9.174;2022-11-15T14:32:42;14.60;99.90
13464;DHT22;6804;48.774;9.174;2022-11-15T14:35:14;14.60;99.90
13464;DHT22;6804;48.774;9.174;2022-11-15T14:37:49;14.60;99.90
13464;DHT22;6804;48.774;9.174;2022-11-15T14:40:24;14.60;99.90
13464;DHT22;6804;48.774;9.174;2022-11-15T14:42:56;14.60;99.90
13464;DHT22;6804;48.774;9.174;2022-11-15T14:45:26;14.60;99.90
13464;DHT22;6804;48.774;9.174;2022-11-15T14:47:54;14.60;99.90
13464;DHT22;6804;48.774;9.174;2022-11-15T14:50:22;14.60;99.90
13464;DHT22;6804;48.774;9.174;2022-11-15T14:52:49;14.60;99.90
13464;DHT22;6804;48.774;9.174;2022-11-15T14:55:21;14.60;99.90
13464;DHT22;6804;48.774;9.174;2022-11-15T14:57:50;14.50;99.90
13464;DHT22;6804;48.774;9.174;2022-11-15T15:00:19;14.50;99.90
13464;DHT22;6804;48.774;9.174;2022-11-15T15:02:48;14.50;99.90
13464;DHT22;6804;48.774;9.174;2022-11-15T15:05:17;14.50;99.90
13464;DHT22;6804;48.774;9.174;2022-11-15T15:07:45;14.50;99.90
13464;DHT22;6804;48.774;9.174;2022-11-15T15:10:13;14.40;99.90
13464;DHT22;6804;48.774;9.174;2022-11-15T15:12:41;14.50;99.90
13464;DHT22;6804;48.774;9.174;2022-11-15T15:15:23;14.40;99.90
13464;DHT22;6804;48.774;9.174;2022-11-15T15:17:51;14.40;99.90
13464;DHT22;6804;48.774;9.174;2022-11-15T15:20:19;14.40;99.90
13464;DHT22;6804;48.774;9.174;2022-11-15T15:22:46;14.40;99.90
13464;DHT22;6804;48.774;9.174;2022-11-15T15:25:22;14.40;99.90
13464;DHT22;6804;48.774;9.174;2022-11-15T15:27:51;14.30;99.90
13464;DHT22;6804;48.774;9.174;2022-11-15T15:30:19;14.30;99.90
13464;DHT22;6804;48.774;9.174;2022-11-15T15:32:50;14.20;99.90
13464;DHT22;6804;48.774;9.174;2022-11-15T15:35:18;14.20;99.90
13464;DHT22;6804;48.774;9.174;2022-11-15T15:37:48;14.20;99.90
13464;DHT22;6804;48.774;9.174;2022-11-15T15:40:21;14.20;99.90
13464;DHT22;6804;48.774;9.174;2022-11-15T15:42:49;14.20;99.90
13464;DHT22;6804;48.774;9.174;2022-11-15T15:45:17;14.20;99.90
13464;DHT22;6804;48.774;9.174;2022-11-15T15:47:49;14.20;99.90
13464;DHT22;6804;48.774;9.174;2022-11-15T15:50:23;14.10;99.90
13464;DHT22;6804;48.774;9.174;2022-11-15T15:52:51;14.10;99.90
13464;DHT22;6804;48.774;9.174;2022-11-15T15:55:21;14.10;99.90
13464;DHT22;6804;48.774;9.174;2022-11-15T15:57:49;14.10;99.90
13464;DHT22;6804;48.774;9.174;2022-11-15T16:00:21;14.10;99.90
13464;DHT22;6804;48.774;9.174;2022-11-15T16:02:56;14.10;99.90
13464;DHT22;6804;48.774;9.174;2022-11-15T16:05:26;14.00;99.90
13464;DHT22;6804;48.774;9.174;2022-11-15T16:07:56;14.00;99.90
13464;DHT22;6804;48.774;9.174;2022-11-15T16:10:25;14.00;99.90
13464;DHT22;6804;48.774;9.174;2022-11-15T16:12:53;14.00;99.90
13464;DHT22;6804;48.774;9.174;2022-11-15T16:15:25;14.00;99.90
13464;DHT22;6804;48.774;9.174;2022-11-15T16:17:55;14.00;99.90
13464;DHT22;6804;48.774;9.174;2022-11-15T16:20:31;14.00;99.90
13464;DHT22;6804;48.774;9.174;2022-11-15T16:23:00;14.00;99.90
13464;DHT22;6804;48.774;9.174;2022-11-15T16:25:31;14.00;99.90
13464;DHT22;6804;48.774;9.174;2022-11-15T16:27:59;13.90;99.90
13464;DHT22;6804;48.774;9.174;2022-11-15T16:30:30;13.90;99.90
13464;DHT22;6804;48.774;9.174;2022-11-15T16:33:00;13.90;99.90
13464;DHT22;6804;48.774;9.174;2022-11-15T16:35:27;13.90;99.90
13464;DHT22;6804;48.774;9.174;2022-11-15T16:37:58;13.90;99.90
13464;DHT22;6804;48.774;9.174;2022-11-15T16:40:28;13.80;99.90